Time;durP1;ratioP1;P1;durP2;ratioP2;P2;SDS_P1;SDS_P2;PMS_P1;PMS_P2;Temp;Humidity;BMP_temperature;BMP_pressure;BME280_temperature;BME280_humidity;BME280_pressure;Samples;Min_cycle;Max_cycle;Signal;HPM_P1;HPM_P2
2021/12/09 00:00:43;;;;;;;37.25;17.05;;;;;;;2.42;76.08;99438.16;4878790;29;20060;-38
2021/12/09 00:03:09;;;;;;;33.63;16.30;;;;;;;2.94;86.49;99445.03;4878688;29;20097;-38
2021/12/09 00:05:35;;;;;;;35.13;17.98;;;;;;;3.29;74.71;99441.31;4878807;29;20115;-38
2021/12/09 00:08:01;;;;;;;33.58;17.38;;;;;;;2.85;73.21;99448.63;4879354;29;20427;-38
2021/12/09 00:10:27;;;;;;;33.10;17.80;;;;;;;2.81;73.69;99452.56;4879244;29;20040;-38
2021/12/09 00:12:52;;;;;;;34.63;17.33;;;;;;;2.74;75.66;99449.75;4879084;29;20049;-38
2021/12/09 00:15:18;;;;;;;33.60;17.80;;;;;;;2.68;74.58;99453.03;4879176;29;20081;-38
2021/12/09 00:17:43;;;;;;;30.65;16.55;;;;;;;2.81;75.96;99442.06;4879163;29;20132;-37
2021/12/09 00:20:10;;;;;;;35.72;18.23;;;;;;;2.81;73.35;99450.75;4878092;29;20073;-37
2021/12/09 00:22:35;;;;;;;33.85;17.70;;;;;;;2.75;75.74;99459.28;4879036;29;20402;-37
2021/12/09 00:25:01;;;;;;;32.17;17.08;;;;;;;2.65;74.83;99451.53;4879157;29;20092;-39
2021/12/09 00:27:26;;;;;;;36.22;17.33;;;;;;;2.43;73.59;99452.94;4888966;29;20032;-37
2021/12/09 00:29:52;;;;;;;34.33;17.55;;;;;;;2.52;74.89;99456.44;4897645;29;20083;-38
2021/12/09 00:32:18;;;;;;;32.30;16.17;;;;;;;2.44;75.20;99451.16;4897846;29;20139;-38
2021/12/09 00:34:47;;;;;;;33.03;15.55;;;;;;;4.00;89.71;99464.44;4897284;29;20036;-38
2021/12/09 00:39:42;;;;;;;27.33;15.07;;;;;;;4.59;71.53;99474.63;4896680;29;20458;-38
2021/12/09 00:42:09;;;;;;;28.05;14.75;;;;;;;4.89;66.92;99465.09;4896723;29;20028;-38
2021/12/09 00:44:34;;;;;;;27.20;14.13;;;;;;;4.04;66.53;99463.13;4896555;29;20025;-38
2021/12/09 00:47:00;;;;;;;27.27;15.05;;;;;;;3.71;68.69;99474.53;4879810;29;20041;-38
2021/12/09 00:49:29;;;;;;;30.08;15.35;;;;;;;3.81;68.74;99484.03;4896527;29;20033;-38
2021/12/09 00:51:54;;;;;;;30.07;14.80;;;;;;;3.84;68.26;99481.91;4896250;29;20025;-38
2021/12/09 00:54:20;;;;;;;27.50;14.15;;;;;;;3.29;69.22;99472.03;4877896;29;20284;-39
2021/12/09 00:56:45;;;;;;;31.10;15.50;;;;;;;2.97;71.11;99470.19;4877696;29;20044;-38
2021/12/09 00:59:11;;;;;;;26.80;14.95;;;;;;;2.92;71.20;99473.31;4877636;29;20033;-37
2021/12/09 01:01:36;;;;;;;27.13;14.45;;;;;;;2.84;73.78;99478.56;4877643;29;20483;-37
2021/12/09 01:04:02;;;;;;;26.98;14.43;;;;;;;2.79;71.99;99481.63;4877486;29;20470;-37
2021/12/09 01:06:27;;;;;;;29.13;15.32;;;;;;;2.78;72.06;99487.03;4875548;29;20048;-37
2021/12/09 01:08:52;;;;;;;26.70;14.60;;;;;;;2.61;72.69;99483.53;4877101;29;20028;-36
2021/12/09 01:11:18;;;;;;;28.40;14.27;;;;;;;2.44;74.36;99482.66;4876920;29;20084;-37
2021/12/09 01:13:44;;;;;;;30.92;15.60;;;;;;;2.35;74.89;99489.66;4877181;29;20025;-36
2021/12/09 01:16:10;;;;;;;33.50;16.25;;;;;;;2.53;75.08;99481.69;4877418;29;20055;-36
2021/12/09 01:18:36;;;;;;;29.63;15.80;;;;;;;2.55;74.14;99479.72;4876884;29;20036;-37
2021/12/09 01:21:01;;;;;;;31.70;15.82;;;;;;;2.58;74.76;99471.53;4877492;29;20028;-37
2021/12/09 01:23:27;;;;;;;31.15;16.15;;;;;;;2.67;73.64;99467.97;4877391;29;20458;-38
2021/12/09 01:25:58;;;;;;;34.55;16.65;;;;;;;2.67;75.10;99473.22;4877616;29;20028;-38
2021/12/09 01:28:27;;;;;;;37.42;18.25;;;;;;;2.51;73.34;99478.41;4894601;29;20351;-38
2021/12/09 01:31:00;;;;;;;33.13;16.77;;;;;;;2.47;74.11;99477.91;4895741;29;20365;-38
2021/12/09 01:33:26;;;;;;;31.67;15.98;;;;;;;2.01;74.49;99468.66;4896007;29;20032;-38
2021/12/09 01:35:51;;;;;;;30.20;15.40;;;;;;;2.40;74.38;99469.03;4895454;29;20056;-38
2021/12/09 01:38:17;;;;;;;29.90;15.15;;;;;;;2.09;75.07;99464.25;4895355;29;20084;-38
2021/12/09 01:40:44;;;;;;;29.42;15.38;;;;;;;2.25;75.75;99470.59;4878800;29;20107;-38
2021/12/09 01:43:09;;;;;;;34.17;16.02;;;;;;;2.21;75.25;99462.19;4895536;29;20040;-39
2021/12/09 01:45:35;;;;;;;32.53;15.82;;;;;;;2.25;76.35;99455.66;4895486;29;20036;-38
2021/12/09 01:48:00;;;;;;;30.60;16.40;;;;;;;2.44;75.52;99456.41;4895953;29;20032;-38
2021/12/09 01:50:26;;;;;;;32.42;15.70;;;;;;;2.15;75.78;99447.91;4895575;29;20025;-38
2021/12/09 01:52:52;;;;;;;27.70;14.90;;;;;;;2.17;76.58;99457.41;4878642;29;20028;-38
2021/12/09 01:55:17;;;;;;;27.98;14.27;;;;;;;2.61;75.73;99447.59;4895379;29;20466;-38
2021/12/09 01:57:45;;;;;;;25.90;14.10;;;;;;;2.64;73.08;99430.69;4894030;29;20028;-38
2021/12/09 02:00:13;;;;;;;27.05;13.85;;;;;;;2.48;73.62;99429.66;4895294;29;20024;-38
2021/12/09 02:02:40;;;;;;;28.80;14.48;;;;;;;2.58;73.42;99426.88;4895655;29;20028;-38
2021/12/09 02:05:06;;;;;;;26.67;14.07;;;;;;;2.53;73.57;99424.75;4895000;29;20028;-38
2021/12/09 02:07:31;;;;;;;27.70;14.35;;;;;;;2.64;73.80;99414.91;4895117;29;20032;-38
2021/12/09 02:09:57;;;;;;;28.48;14.45;;;;;;;2.42;73.87;99419.78;4895268;29;20028;-37
2021/12/09 02:12:22;;;;;;;27.60;13.75;;;;;;;2.19;75.77;99424.78;4878459;29;20060;-37
2021/12/09 02:14:48;;;;;;;26.20;13.63;;;;;;;2.41;73.64;99415.50;4895041;29;20025;-37
2021/12/09 02:17:13;;;;;;;27.35;14.45;;;;;;;2.13;75.61;99414.88;4895076;29;20021;-37
2021/12/09 02:19:42;;;;;;;27.50;14.13;;;;;;;2.24;73.47;99409.34;4894869;29;20385;-38
2021/12/09 02:22:10;;;;;;;27.40;14.30;;;;;;;2.08;75.76;99418.00;4895301;29;20031;-37
2021/12/09 02:24:35;;;;;;;27.98;14.30;;;;;;;2.26;73.11;99411.81;4894638;29;20135;-38
2021/12/09 02:27:01;;;;;;;30.10;15.27;;;;;;;1.95;73.98;99401.84;4894105;29;20506;-38
2021/12/09 02:29:26;;;;;;;27.85;14.25;;;;;;;2.37;73.32;99403.66;4894613;29;20024;-37
2021/12/09 02:31:56;;;;;;;30.20;14.77;;;;;;;2.25;75.33;99408.38;4894669;29;20029;-38
2021/12/09 02:34:22;;;;;;;26.45;13.90;;;;;;;1.90;74.38;99418.03;4895089;29;20450;-38
2021/12/09 02:36:47;;;;;;;29.75;14.98;;;;;;;1.55;74.97;99427.66;4894734;29;20044;-39
2021/12/09 02:39:14;;;;;;;29.45;14.98;;;;;;;1.59;76.11;99430.81;4894616;29;20405;-38
2021/12/09 02:41:40;;;;;;;32.05;15.63;;;;;;;1.69;77.58;99418.41;4894744;29;20482;-38
2021/12/09 02:44:07;;;;;;;32.60;13.40;;;;;;;3.30;90.83;99431.63;4897654;29;20028;-38
2021/12/09 02:46:36;;;;;;;48.10;20.90;;;;;;;2.99;74.70;99437.50;4898736;29;20481;-38
2021/12/09 02:49:03;;;;;;;40.40;20.10;;;;;;;2.85;76.46;99433.69;4898850;29;20027;-38
2021/12/09 02:51:28;;;;;;;44.88;22.25;;;;;;;2.64;74.23;99438.56;4898726;29;20029;-38
2021/12/09 02:53:54;;;;;;;36.25;17.67;;;;;;;2.26;74.41;99438.09;4898455;29;20398;-38
2021/12/09 02:56:20;;;;;;;34.97;15.82;;;;;;;1.40;76.59;99436.25;4898537;29;20091;-38
2021/12/09 02:58:45;;;;;;;33.22;15.95;;;;;;;1.48;76.85;99424.00;4898314;29;20033;-38
2021/12/09 03:01:16;;;;;;;30.05;15.40;;;;;;;1.46;76.43;99439.06;4898296;29;20043;-38
2021/12/09 03:03:49;;;;;;;33.00;15.88;;;;;;;0.91;77.04;99431.38;4891610;29;20085;-38
2021/12/09 03:06:15;;;;;;;33.25;15.63;;;;;;;1.05;78.32;99432.66;4872022;29;20029;-38
2021/12/09 03:08:41;;;;;;;29.55;15.40;;;;;;;1.23;78.36;99451.81;4862745;29;20350;-37
2021/12/09 03:11:09;;;;;;;33.67;15.60;;;;;;;1.32;78.42;99458.78;4879685;29;20104;-37
2021/12/09 03:13:35;;;;;;;33.92;15.82;;;;;;;1.43;77.61;99459.53;4879573;29;20036;-37
2021/12/09 03:16:01;;;;;;;34.30;15.55;;;;;;;1.25;78.51;99454.31;4879614;29;20144;-37
2021/12/09 03:18:27;;;;;;;31.40;16.33;;;;;;;1.21;77.03;99461.63;4879475;29;20032;-38
2021/12/09 03:20:52;;;;;;;31.42;15.75;;;;;;;1.15;79.92;99459.63;4879645;29;20028;-38
2021/12/09 03:23:18;;;;;;;35.30;17.17;;;;;;;1.19;79.32;99462.78;4878204;29;20067;-38
2021/12/09 03:25:43;;;;;;;37.47;17.98;;;;;;;0.95;79.07;99467.63;4879476;29;20028;-37
2021/12/09 03:28:08;;;;;;;38.05;18.88;;;;;;;0.96;78.04;99464.03;4895034;29;20032;-38
2021/12/09 03:30:34;;;;;;;39.95;18.60;;;;;;;0.88;78.53;99463.13;4897996;29;20304;-38
2021/12/09 03:32:59;;;;;;;45.30;21.00;;;;;;;0.90;79.43;99458.56;4898377;29;20091;-37
2021/12/09 03:35:25;;;;;;;40.83;19.52;;;;;;;0.74;81.03;99464.44;4897820;29;20088;-38
2021/12/09 03:37:50;;;;;;;42.65;18.65;;;;;;;0.58;81.13;99459.84;4897499;29;20309;-38
2021/12/09 03:40:16;;;;;;;36.67;18.30;;;;;;;0.71;80.51;99459.50;4898074;29;20454;-38
2021/12/09 03:42:41;;;;;;;37.63;18.20;;;;;;;0.46;80.46;99458.38;4897823;29;20392;-38
2021/12/09 03:45:07;;;;;;;39.17;17.38;;;;;;;0.49;81.43;99451.06;4897681;29;20036;-38
2021/12/09 03:47:33;;;;;;;38.22;17.95;;;;;;;0.49;81.74;99453.69;4897869;29;20034;-38
2021/12/09 03:49:59;;;;;;;35.30;17.38;;;;;;;0.60;81.51;99452.66;4896093;29;20024;-37
2021/12/09 03:52:26;;;;;;;37.47;18.00;;;;;;;0.50;81.51;99467.63;4895987;29;20028;-38
2021/12/09 03:54:51;;;;;;;36.25;16.83;;;;;;;0.63;81.08;99473.34;4897329;29;20032;-38
2021/12/09 03:57:17;;;;;;;37.70;18.52;;;;;;;0.82;80.87;99482.88;4897363;29;20169;-37
2021/12/09 03:59:42;;;;;;;38.13;18.48;;;;;;;0.95;79.92;99472.88;4897751;29;20039;-37
2021/12/09 04:02:08;;;;;;;38.03;17.30;;;;;;;1.08;80.69;99488.22;4897506;29;20029;-38
2021/12/09 04:04:34;;;;;;;40.17;18.33;;;;;;;1.16;80.62;99490.09;4897312;29;20028;-38
2021/12/09 04:06:59;;;;;;;38.42;17.95;;;;;;;0.92;79.24;99440.91;4897341;29;20354;-38
2021/12/09 04:09:25;;;;;;;41.85;16.58;;;;;;;1.21;80.30;99477.38;4897682;29;20031;-38
2021/12/09 04:11:51;;;;;;;36.40;17.92;;;;;;;0.98;79.83;99469.13;4896978;29;20040;-38
2021/12/09 04:14:17;;;;;;;37.42;17.90;;;;;;;1.07;80.70;99468.25;4896918;29;20084;-38
2021/12/09 04:16:42;;;;;;;37.88;18.00;;;;;;;0.84;80.20;99467.00;4895292;29;20092;-38
2021/12/09 04:19:08;;;;;;;38.70;17.23;;;;;;;0.57;80.29;99460.81;4896732;29;20027;-38
2021/12/09 04:21:34;;;;;;;37.80;16.88;;;;;;;0.65;82.15;99463.53;4896700;29;20135;-38
2021/12/09 04:23:59;;;;;;;35.35;16.33;;;;;;;0.54;82.13;99455.88;4896914;29;20096;-38
2021/12/09 04:26:25;;;;;;;32.20;15.02;;;;;;;0.60;82.75;99457.91;4894548;29;20712;-39
2021/12/09 04:28:50;;;;;;;36.25;16.80;;;;;;;0.56;81.81;99459.16;4878167;29;20115;-39
2021/12/09 04:31:16;;;;;;;32.78;14.30;;;;;;;0.64;82.07;99459.25;4878220;29;20040;-39
2021/12/09 04:33:43;;;;;;;32.80;15.55;;;;;;;0.71;79.94;99462.94;4861682;29;20065;-37
2021/12/09 04:36:10;;;;;;;32.67;16.13;;;;;;;0.59;81.75;99479.81;4878368;29;20422;-37
2021/12/09 04:38:36;;;;;;;31.30;15.13;;;;;;;0.41;79.40;99484.19;4878965;29;20044;-38
2021/12/09 04:41:01;;;;;;;28.42;13.27;;;;;;;0.26;80.08;99473.34;4878932;29;20029;-37
2021/12/09 04:43:26;;;;;;;32.65;16.83;;;;;;;0.23;80.03;99473.63;4878444;29;20422;-38
2021/12/09 04:45:52;;;;;;;32.78;16.15;;;;;;;-0.07;81.14;99473.72;4878272;29;20025;-38
2021/12/09 04:48:17;;;;;;;36.70;18.63;;;;;;;0.14;82.34;99484.00;4878020;29;20080;-39
2021/12/09 04:50:43;;;;;;;40.97;20.98;;;;;;;0.19;83.56;99489.63;4878126;29;20029;-39
2021/12/09 04:53:09;;;;;;;50.03;22.67;;;;;;;1.98;95.00;99501.28;4887643;29;20032;-38
2021/12/09 04:55:34;;;;;;;42.40;20.60;;;;;;;1.32;78.26;99506.00;4895085;29;20048;-38
2021/12/09 04:58:00;;;;;;;54.65;22.00;;;;;;;0.98;81.40;99505.81;4896503;29;20028;-38
2021/12/09 05:00:26;;;;;;;46.10;20.92;;;;;;;0.66;79.80;99487.94;4880071;29;20024;-37
2021/12/09 05:03:08;;;;;;;35.40;17.23;;;;;;;0.69;80.83;99491.09;4896400;29;20052;-37
2021/12/09 05:05:37;;;;;;;39.25;17.33;;;;;;;0.83;80.51;99504.66;4896480;29;20191;-37
2021/12/09 05:08:07;;;;;;;32.55;17.23;;;;;;;0.66;81.95;99490.53;4896528;29;20029;-38
2021/12/09 05:10:52;;;;;;;29.92;16.13;;;;;;;1.67;82.49;99495.63;4896343;29;20115;-38
2021/12/09 05:13:18;;;;;;;31.73;15.75;;;;;;;1.02;82.06;99494.06;4896137;29;20088;-36
2021/12/09 05:15:44;;;;;;;27.33;14.25;;;;;;;0.87;80.38;99480.63;4896482;29;20032;-37
2021/12/09 05:18:09;;;;;;;29.75;14.20;;;;;;;0.63;81.09;99481.19;4895872;29;20029;-37
2021/12/09 05:20:35;;;;;;;38.60;18.83;;;;;;;0.55;81.15;99495.03;4895915;29;20127;-37
2021/12/09 05:23:00;;;;;;;43.33;21.95;;;;;;;0.63;81.84;99493.44;4896011;29;20243;-51
2021/12/09 05:25:26;;;;;;;62.97;26.20;;;;;;;0.62;80.60;99500.47;4895699;29;20097;-49
2021/12/09 05:27:53;;;;;;;35.25;16.55;;;;;;;0.73;83.39;99502.91;4876180;29;20476;-49
2021/12/09 05:30:24;;;;;;;31.40;14.77;;;;;;;0.86;80.99;99504.38;4876712;29;20032;-48
2021/12/09 05:32:49;;;;;;;33.80;16.42;;;;;;;0.84;84.58;99511.53;4876947;29;20105;-51
2021/12/09 05:35:15;;;;;;;33.78;16.42;;;;;;;0.98;82.89;99517.09;4877172;29;20625;-48
2021/12/09 05:37:41;;;;;;;31.52;16.48;;;;;;;0.75;80.85;99510.63;4876463;29;20152;-48
2021/12/09 05:40:07;;;;;;;31.48;15.30;;;;;;;0.84;80.25;99522.00;4876898;29;20037;-49
2021/12/09 05:42:32;;;;;;;27.52;13.95;;;;;;;0.91;80.69;99525.69;4876871;29;20026;-48
2021/12/09 05:44:59;;;;;;;30.92;14.95;;;;;;;0.85;81.16;99524.50;4876590;29;20112;-50
2021/12/09 05:47:25;;;;;;;28.67;14.48;;;;;;;0.83;79.97;99536.91;4876542;29;20508;-52
2021/12/09 05:49:50;;;;;;;37.75;16.20;;;;;;;1.58;81.47;99543.75;4876615;29;20021;-52
2021/12/09 05:52:16;;;;;;;31.98;15.50;;;;;;;1.14;77.63;99540.06;4879776;29;20510;-50
2021/12/09 05:54:42;;;;;;;33.47;16.75;;;;;;;0.74;83.05;99525.53;4895255;29;20052;-53
2021/12/09 05:57:08;;;;;;;38.83;16.83;;;;;;;1.95;89.53;99549.63;4894819;29;20040;-50
2021/12/09 05:59:33;;;;;;;35.83;16.08;;;;;;;2.54;86.05;99551.66;4894311;29;20031;-49
2021/12/09 06:01:59;;;;;;;32.60;16.65;;;;;;;3.31;80.76;99554.25;4895572;29;20032;-52
2021/12/09 06:04:24;;;;;;;43.22;19.73;;;;;;;4.86;82.97;99555.13;4895963;29;20048;-49
2021/12/09 06:06:50;;;;;;;26.55;14.15;;;;;;;5.25;69.34;99552.47;4895267;29;20039;-52
2021/12/09 06:09:15;;;;;;;28.70;14.00;;;;;;;4.34;68.54;99551.16;4895508;29;20028;-49
2021/12/09 06:11:42;;;;;;;28.65;14.45;;;;;;;5.35;74.38;99556.69;4895317;29;20036;-51
2021/12/09 06:14:08;;;;;;;32.10;16.15;;;;;;;5.45;65.05;99560.75;4895881;29;20509;-49
2021/12/09 06:16:34;;;;;;;40.30;20.35;;;;;;;4.52;62.34;99572.03;4895559;29;20429;-50
2021/12/09 06:19:00;;;;;;;34.17;17.52;;;;;;;3.81;67.42;99570.91;4894686;29;20032;-50
2021/12/09 06:21:27;;;;;;;41.33;20.17;;;;;;;3.26;68.23;99572.34;4895214;29;20039;-50
2021/12/09 06:23:56;;;;;;;32.10;15.18;;;;;;;2.98;69.68;99577.81;4895144;29;20100;-53
2021/12/09 06:26:22;;;;;;;29.15;15.32;;;;;;;2.68;69.61;99585.22;4895664;29;20041;-51
2021/12/09 06:28:47;;;;;;;26.23;13.95;;;;;;;2.42;70.18;99581.78;4895575;29;20036;-50
2021/12/09 06:31:13;;;;;;;36.15;18.25;;;;;;;2.38;71.34;99597.06;4895373;29;20558;-50
2021/12/09 06:33:38;;;;;;;37.20;17.77;;;;;;;2.48;70.87;99608.28;4895255;29;20389;-53
2021/12/09 06:36:04;;;;;;;33.17;16.90;;;;;;;2.61;70.36;99607.88;4894697;29;20052;-51
2021/12/09 06:38:29;;;;;;;32.47;17.73;;;;;;;2.53;71.81;99602.53;4892788;29;20518;-51
2021/12/09 06:40:55;;;;;;;27.33;13.82;;;;;;;3.23;71.22;99612.91;4886989;29;20535;-51
2021/12/09 06:43:22;;;;;;;24.45;13.90;;;;;;;3.42;68.86;99590.78;4895145;29;20036;-53
2021/12/09 06:45:48;;;;;;;27.75;13.68;;;;;;;3.41;69.67;99593.56;4894812;29;20485;-52
2021/12/09 06:48:13;;;;;;;24.02;12.73;;;;;;;3.65;67.80;99593.59;4878183;29;20081;-53
2021/12/09 06:50:38;;;;;;;27.80;13.70;;;;;;;3.85;69.63;99583.59;4893495;29;20351;-50
2021/12/09 06:53:04;;;;;;;24.67;13.07;;;;;;;4.29;67.99;99574.53;4890435;29;20076;-49
2021/12/09 06:55:30;;;;;;;22.90;12.95;;;;;;;5.96;72.03;99577.91;4894227;29;20033;-49
2021/12/09 06:57:55;;;;;;;22.50;12.02;;;;;;;7.10;67.11;99572.44;4895133;29;20036;-50
2021/12/09 07:00:26;;;;;;;30.42;15.60;;;;;;;7.60;64.34;99565.47;4895152;29;20110;-50
2021/12/09 07:02:52;;;;;;;47.30;23.52;;;;;;;6.10;58.64;99558.66;4894029;29;20029;-50
2021/12/09 07:05:18;;;;;;;28.15;14.98;;;;;;;5.00;62.28;99559.66;4894183;29;20103;-58
2021/12/09 07:07:43;;;;;;;25.08;12.68;;;;;;;4.55;64.09;99562.94;4894442;29;20052;-48
2021/12/09 07:10:10;;;;;;;23.48;12.93;;;;;;;4.37;64.86;99568.44;4893863;29;20024;-51
2021/12/09 07:12:37;;;;;;;22.05;12.45;;;;;;;4.45;65.06;99568.41;4881903;29;20039;-50
2021/12/09 07:15:03;;;;;;;23.33;13.18;;;;;;;4.66;64.11;99567.84;4878013;29;20490;-50
2021/12/09 07:17:29;;;;;;;25.40;13.38;;;;;;;4.66;64.39;99565.22;4884875;29;20029;-49
2021/12/09 07:19:54;;;;;;;24.85;13.13;;;;;;;4.82;64.28;99562.53;4879816;29;20040;-49
2021/12/09 07:22:20;;;;;;;24.35;12.73;;;;;;;4.95;63.39;99569.91;4879848;29;20029;-50
2021/12/09 07:24:45;;;;;;;27.95;12.93;;;;;;;4.97;62.89;99567.94;4882648;29;20080;-52
2021/12/09 07:27:11;;;;;;;22.05;12.13;;;;;;;5.14;62.74;99573.13;4882977;29;20041;-52
2021/12/09 07:29:36;;;;;;;22.95;12.82;;;;;;;5.01;62.96;99577.13;4884545;29;20048;-52
2021/12/09 07:32:02;;;;;;;20.92;12.52;;;;;;;5.34;60.95;99579.63;4886441;29;20036;-53
2021/12/09 07:34:27;;;;;;;23.25;12.25;;;;;;;5.36;61.40;99585.53;4888736;29;20052;-54
2021/12/09 07:36:53;;;;;;;24.38;12.52;;;;;;;5.33;62.02;99580.63;4895895;29;20093;-50
2021/12/09 07:39:18;;;;;;;23.45;13.43;;;;;;;5.39;61.06;99581.75;4897197;29;20029;-52
2021/12/09 07:41:44;;;;;;;22.33;13.55;;;;;;;5.54;60.75;99585.28;4897106;29;20157;-53
2021/12/09 07:44:10;;;;;;;25.45;13.02;;;;;;;5.95;58.94;99576.25;4897012;29;20035;-52
2021/12/09 07:46:36;;;;;;;26.90;13.10;;;;;;;5.73;59.58;99570.81;4896868;29;20103;-50
2021/12/09 07:49:02;;;;;;;33.35;18.08;;;;;;;5.74;60.14;99568.97;4896242;29;20021;-52
2021/12/09 07:51:28;;;;;;;31.15;17.40;;;;;;;6.17;58.19;99572.78;4896945;29;20029;-50
2021/12/09 07:53:53;;;;;;;26.33;13.63;;;;;;;6.12;57.60;99575.13;4897492;29;20139;-54
2021/12/09 07:56:19;;;;;;;29.58;14.63;;;;;;;5.95;57.93;99577.09;4897046;29;20088;-50
2021/12/09 07:58:44;;;;;;;27.23;14.95;;;;;;;6.11;56.66;99572.66;4897001;29;20028;-50
2021/12/09 08:01:10;;;;;;;25.23;14.40;;;;;;;6.55;56.63;99578.03;4897288;29;20035;-51
2021/12/09 08:03:36;;;;;;;27.23;14.60;;;;;;;6.70;56.95;99558.69;4897471;29;20024;-53
2021/12/09 08:06:01;;;;;;;25.20;13.43;;;;;;;6.64;64.37;99568.19;4896888;29;20054;-50
2021/12/09 08:08:27;;;;;;;26.88;14.32;;;;;;;7.17;54.48;99560.13;4879494;29;20025;-51
2021/12/09 08:10:52;;;;;;;31.77;15.70;;;;;;;7.15;54.00;99554.19;4896459;29;20393;-51
2021/12/09 08:13:18;;;;;;;25.75;14.13;;;;;;;7.39;54.45;99548.56;4897312;29;20440;-54
2021/12/09 08:15:49;;;;;;;26.10;15.50;;;;;;;7.48;54.82;99551.09;4879889;29;20128;-49
2021/12/09 08:20:47;;;;;;;23.67;14.05;;;;;;;7.24;54.25;99558.38;4895871;29;20112;-51
2021/12/09 08:23:13;;;;;;;30.35;14.52;;;;;;;7.28;54.23;99561.47;4895913;29;20025;-51
2021/12/09 08:25:38;;;;;;;24.88;13.88;;;;;;;7.07;54.72;99554.31;4896671;29;20390;-51
2021/12/09 08:28:04;;;;;;;25.10;14.05;;;;;;;7.07;55.01;99554.31;4896386;29;20025;-49
2021/12/09 08:30:30;;;;;;;21.88;13.65;;;;;;;7.14;54.53;99565.78;4896551;29;20024;-49
2021/12/09 08:32:56;;;;;;;28.92;13.65;;;;;;;7.59;53.82;99556.69;4896798;29;20450;-50
2021/12/09 08:35:21;;;;;;;24.10;13.88;;;;;;;7.69;53.64;99547.63;4896323;29;20143;-50
2021/12/09 08:37:50;;;;;;;25.85;13.85;;;;;;;7.73;53.84;99552.38;4896111;29;20040;-48
2021/12/09 08:40:16;;;;;;;66.05;34.92;;;;;;;7.70;54.47;99541.34;4895158;29;20041;-50
2021/12/09 08:42:42;;;;;;;47.38;23.63;;;;;;;7.61;54.33;99545.91;4888409;29;20060;-49
2021/12/09 08:45:10;;;;;;;26.05;13.77;;;;;;;7.60;53.77;99544.31;4889687;29;20075;-51
2021/12/09 08:47:36;;;;;;;24.63;14.38;;;;;;;7.82;54.07;99545.94;4896216;29;20112;-50
2021/12/09 08:50:02;;;;;;;22.80;13.73;;;;;;;7.50;53.56;99536.66;4893068;29;20033;-48
2021/12/09 08:52:27;;;;;;;26.58;13.73;;;;;;;7.93;53.48;99541.13;4889545;29;20025;-51
2021/12/09 08:54:53;;;;;;;25.15;13.65;;;;;;;8.26;53.20;99544.03;4896633;29;20096;-51
2021/12/09 08:57:20;;;;;;;26.30;15.05;;;;;;;8.14;52.32;99534.97;4896345;29;20500;-49
2021/12/09 08:59:45;;;;;;;25.75;14.80;;;;;;;8.29;51.83;99526.94;4896429;29;20028;-52
2021/12/09 09:02:11;;;;;;;27.13;14.00;;;;;;;9.29;50.32;99525.59;4896063;29;20449;-53
2021/12/09 09:04:36;;;;;;;24.88;14.13;;;;;;;8.86;49.89;99527.69;4896880;29;20119;-55
2021/12/09 09:07:02;;;;;;;24.20;13.68;;;;;;;9.00;52.91;99522.25;4896925;29;20052;-52
2021/12/09 09:09:32;;;;;;;26.25;13.70;;;;;;;9.00;51.28;99516.09;4896267;29;20020;-51
2021/12/09 09:11:58;;;;;;;25.17;14.55;;;;;;;8.72;50.72;99514.34;4895998;29;20020;-51
2021/12/09 09:14:23;;;;;;;27.90;14.60;;;;;;;8.23;53.14;99496.69;4895813;29;20032;-51
2021/12/09 09:16:50;;;;;;;28.85;14.93;;;;;;;8.51;51.70;99494.06;4895624;29;20024;-51
2021/12/09 09:19:15;;;;;;;29.45;15.25;;;;;;;8.59;51.11;99471.84;4895498;29;20043;-38
2021/12/09 09:21:42;;;;;;;24.23;14.63;;;;;;;8.78;51.51;99486.22;4878763;29;20024;-40
2021/12/09 09:24:08;;;;;;;30.23;16.98;;;;;;;8.25;52.18;99484.06;4895650;29;20068;-38
2021/12/09 09:26:33;;;;;;;31.15;16.55;;;;;;;8.90;51.18;99481.16;4895599;29;20120;-38
2021/12/09 09:28:59;;;;;;;30.80;16.85;;;;;;;8.53;52.06;99477.91;4884880;29;20033;-39
2021/12/09 09:31:29;;;;;;;32.65;17.98;;;;;;;8.29;53.26;99484.50;4891871;29;20028;-39
2021/12/09 09:33:54;;;;;;;25.70;15.63;;;;;;;8.36;53.81;99478.22;4886957;29;20119;-49
2021/12/09 09:36:19;;;;;;;27.52;16.23;;;;;;;8.56;53.89;99462.44;4865494;29;20068;-51
2021/12/09 09:38:45;;;;;;;30.13;16.63;;;;;;;8.78;52.80;99465.00;4885964;29;20726;-51
2021/12/09 09:41:14;;;;;;;29.95;16.75;;;;;;;8.44;52.60;99461.38;4884721;29;20096;-48
2021/12/09 09:46:26;;;;;;;30.88;16.88;;;;;;;8.26;52.78;99455.72;4887091;29;20065;-52
2021/12/09 09:48:53;;;;;;;33.65;17.48;;;;;;;9.53;51.34;99451.66;4884398;29;20491;-50
2021/12/09 09:51:19;;;;;;;32.60;16.33;;;;;;;9.10;51.90;99450.19;4886242;29;20183;-49
2021/12/09 09:53:44;;;;;;;32.30;16.95;;;;;;;8.91;52.48;99456.22;4887994;29;20021;-52
2021/12/09 09:56:16;;;;;;;33.65;16.60;;;;;;;8.94;52.42;99446.03;4884599;29;20442;-49
2021/12/09 09:58:42;;;;;;;30.08;16.88;;;;;;;9.21;52.86;99440.78;4886807;29;20088;-48
2021/12/09 10:01:08;;;;;;;28.63;17.48;;;;;;;9.10;53.29;99447.53;4876186;29;20028;-49
2021/12/09 10:03:40;;;;;;;26.83;16.67;;;;;;;8.98;52.54;99446.47;4894764;29;20401;-51
2021/12/09 10:06:05;;;;;;;28.05;17.55;;;;;;;8.77;53.17;99442.94;4894907;29;20063;-49
2021/12/09 10:08:31;;;;;;;35.55;17.15;;;;;;;9.11;53.01;99437.72;4895477;29;20024;-50
2021/12/09 10:10:56;;;;;;;37.00;17.55;;;;;;;9.43;51.57;99446.75;4894910;29;20493;-49
2021/12/09 10:13:27;;;;;;;34.58;17.95;;;;;;;9.67;51.03;99444.50;4895266;29;20399;-41
2021/12/09 10:15:52;;;;;;;34.60;17.38;;;;;;;9.77;50.75;99451.06;4894393;29;20032;-38
2021/12/09 10:18:51;;;;;;;34.47;20.35;;;;;;;9.57;50.71;99448.38;4895250;29;20032;-37
2021/12/09 10:21:20;;;;;;;38.95;22.15;;;;;;;9.24;52.59;99427.13;4863169;29;20135;-40
2021/12/09 10:23:48;;;;;;;38.30;20.98;;;;;;;9.32;51.17;99426.91;4895108;29;20028;-38
2021/12/09 10:26:21;;;;;;;40.28;22.08;;;;;;;9.45;51.22;99422.66;4895076;29;20032;-39
2021/12/09 10:28:52;;;;;;;38.25;20.92;;;;;;;10.24;49.87;99413.75;4895218;29;20024;-39
2021/12/09 10:31:24;;;;;;;34.70;20.88;;;;;;;9.48;51.35;99415.09;4895112;29;20083;-39
2021/12/09 10:34:03;;;;;;;38.85;22.25;;;;;;;9.52;51.22;99412.81;4894992;29;20034;-39
2021/12/09 10:36:40;;;;;;;35.58;21.23;;;;;;;9.51;52.02;99414.66;4894587;29;20091;-38
2021/12/09 10:39:17;;;;;;;41.63;22.95;;;;;;;9.11;52.90;99412.00;4894964;29;20024;-40
2021/12/09 10:41:43;;;;;;;40.55;22.00;;;;;;;9.08;53.00;99399.13;4894923;29;20033;-39
2021/12/09 10:44:08;;;;;;;42.88;22.90;;;;;;;9.28;52.69;99387.72;4894491;29;20095;-41
2021/12/09 10:46:51;;;;;;;36.47;21.90;;;;;;;9.31;53.38;99387.28;4894333;29;20032;-38
2021/12/09 10:49:17;;;;;;;44.30;21.75;;;;;;;9.52;52.36;99384.44;4894619;29;20031;-41
2021/12/09 10:51:55;;;;;;;43.80;24.48;;;;;;;8.97;53.26;99378.50;4894997;29;20036;-39
2021/12/09 10:54:35;;;;;;;38.65;21.40;;;;;;;8.97;53.71;99387.25;4895086;29;20427;-38
2021/12/09 10:57:23;;;;;;;36.08;19.15;;;;;;;8.67;54.74;99386.78;4894759;29;20418;-39
2021/12/09 10:59:49;;;;;;;31.23;17.13;;;;;;;8.47;55.59;99391.19;4894624;29;20143;-39
2021/12/09 11:02:14;;;;;;;34.17;17.42;;;;;;;8.15;57.74;99394.31;4877512;29;20057;-41
2021/12/09 11:04:39;;;;;;;34.70;17.50;;;;;;;9.33;55.91;99393.25;4896723;29;20490;-37
2021/12/09 11:07:26;;;;;;;28.10;16.10;;;;;;;9.28;54.70;99382.41;4898123;29;20025;-39
2021/12/09 11:10:19;;;;;;;23.08;14.23;;;;;;;9.11;54.29;99374.81;4898042;29;20029;-39
2021/12/09 11:12:56;;;;;;;25.35;14.38;;;;;;;8.55;55.55;99365.34;4897639;29;20029;-39
2021/12/09 11:15:23;;;;;;;23.85;13.65;;;;;;;8.57;56.50;99360.63;4898295;29;20655;-40
2021/12/09 11:17:52;;;;;;;23.88;12.80;;;;;;;8.66;57.46;99371.06;4881468;29;20020;-38
2021/12/09 11:20:53;;;;;;;24.02;12.95;;;;;;;8.79;55.45;99360.47;4898176;29;20028;-48
2021/12/09 11:23:55;;;;;;;24.13;12.90;;;;;;;9.68;54.29;99343.34;4820824;29;20040;-50
2021/12/09 11:26:48;;;;;;;22.98;12.48;;;;;;;8.86;55.65;99348.06;4885070;29;20033;-51
2021/12/09 11:29:16;;;;;;;19.48;11.27;;;;;;;8.56;55.94;99343.06;4892223;29;20048;-56
2021/12/09 11:32:21;;;;;;;20.75;11.57;;;;;;;8.63;55.66;99343.09;4889511;29;20036;-50